createdAt,value
2023-02-22T00:02:28.973Z,23.6
2023-02-22T00:08:21.212Z,23.6
2023-02-22T00:14:13.664Z,23.4
2023-02-22T00:20:07.086Z,23.4
2023-02-22T00:25:58.565Z,23.4
2023-02-22T00:31:36.184Z,23.4
2023-02-22T00:37:29.857Z,23.4
2023-02-22T00:43:06.568Z,23.3
2023-02-22T00:48:43.750Z,23.3
2023-02-22T00:54:21.623Z,23.3
2023-02-22T01:00:13.789Z,23.3
2023-02-22T01:06:08.118Z,23.2
2023-02-22T01:11:46.159Z,23.2
2023-02-22T01:17:38.560Z,23.1
2023-02-22T01:23:17.226Z,23.1
2023-02-22T01:29:10.649Z,23.1
2023-02-22T01:34:47.393Z,23.1
2023-02-22T01:40:24.685Z,23.1
2023-02-22T01:46:03.373Z,23
2023-02-22T01:51:55.077Z,23
2023-02-22T01:57:47.381Z,22.9
2023-02-22T02:03:39.856Z,22.9
2023-02-22T02:09:32.693Z,22.9
2023-02-22T02:15:24.634Z,22.9
2023-02-22T02:20:47.314Z,22.9
2023-02-22T02:26:24.371Z,22.9
2023-02-22T02:32:01.287Z,22.8
2023-02-22T02:37:55.643Z,22.8
2023-02-22T02:43:17.554Z,22.8
2023-02-22T02:49:10.646Z,22.8
2023-02-22T02:55:04.432Z,22.8
2023-02-22T03:00:55.590Z,22.7
2023-02-22T03:06:33.600Z,22.7
2023-02-22T03:12:27.041Z,22.7
2023-02-22T03:18:19.251Z,22.6
2023-02-22T03:24:11.758Z,22.6
2023-02-22T03:30:04.424Z,22.6
2023-02-22T03:35:41.284Z,22.6
2023-02-22T03:41:18.785Z,22.6
2023-02-22T03:47:12.768Z,22.6
2023-02-22T03:52:50.181Z,22.5
2023-02-22T03:58:28.481Z,22.5
2023-02-22T04:04:06.891Z,22.4
2023-02-22T04:09:43.598Z,22.4
2023-02-22T04:15:20.868Z,22.4
2023-02-22T04:21:14.021Z,22.4
2023-02-22T04:27:06.000Z,22.4
2023-02-22T04:32:58.710Z,22.4
2023-02-22T04:38:22.660Z,22.4
2023-02-22T04:44:14.222Z,22.3
2023-02-22T04:49:53.372Z,22.3
2023-02-22T04:55:47.184Z,22.3
2023-02-22T05:01:39.690Z,22.3
2023-02-22T05:07:16.379Z,22.3
2023-02-22T05:18:31.166Z,22.2
2023-02-22T05:24:23.857Z,22.2
2023-02-22T05:30:17.324Z,22.3
2023-02-22T05:36:11.202Z,22.3
2023-02-22T05:42:03.747Z,22.3
2023-02-22T05:47:57.628Z,22.2
2023-02-22T05:53:35.428Z,22.2
2023-02-22T05:59:28.185Z,22.2
2023-02-22T06:05:21.358Z,22.1
2023-02-22T06:10:57.694Z,22
2023-02-22T06:16:49.519Z,21.9
2023-02-22T06:22:27.886Z,21.9
2023-02-22T06:28:04.520Z,21.8
2023-02-22T06:33:42.278Z,21.7
2023-02-22T06:39:20.102Z,31.9
2023-02-22T06:44:57.157Z,24.3
2023-02-22T06:50:35.997Z,25.1
2023-02-22T06:56:14.204Z,26.5
2023-02-22T07:01:51.425Z,27.9
2023-02-22T07:07:29.918Z,29.2
2023-02-22T07:13:10.791Z,30.7
2023-02-22T07:18:47.839Z,31.9
2023-02-22T07:24:10.153Z,32.8
2023-02-22T07:30:04.256Z,34
2023-02-22T07:35:58.249Z,35.5
2023-02-22T07:41:52.169Z,37.1
2023-02-22T07:47:45.955Z,38.5
2023-02-22T07:53:37.550Z,39.9
2023-02-22T07:59:29.035Z,41.2
2023-02-22T08:05:23.176Z,42.5
2023-02-22T08:11:14.667Z,43.7
2023-02-22T08:16:51.864Z,41.1
2023-02-22T08:22:46.758Z,41.7
2023-02-22T08:28:39.568Z,43
2023-02-22T08:34:37.964Z,44.4
2023-02-22T08:40:31.444Z,46
2023-02-22T08:46:23.812Z,47.4
2023-02-22T08:52:17.121Z,48.4
2023-02-22T08:58:11.242Z,49.9
2023-02-22T09:04:17.058Z,50.7
2023-02-22T09:10:09.214Z,52
2023-02-22T09:16:06.512Z,52.9
2023-02-22T09:22:08.037Z,53.9
2023-02-22T09:28:07.281Z,54.8
2023-02-22T09:34:04.388Z,55.6
2023-02-22T09:39:42.506Z,56.2
2023-02-22T09:45:35.239Z,56.9
2023-02-22T09:51:44.798Z,57.2
2023-02-22T09:57:22.325Z,57.6
2023-02-22T10:02:59.172Z,58.3
2023-02-22T10:08:38.435Z,59
2023-02-22T10:13:43.856Z,59.6
2023-02-22T10:19:21.575Z,59.9
2023-02-22T10:25:15.365Z,60.8
2023-02-22T10:30:58.888Z,61.4
2023-02-22T10:36:53.013Z,62.1
2023-02-22T10:42:32.114Z,62.3
2023-02-22T10:48:11.221Z,62.7
2023-02-22T10:53:48.394Z,63.3
2023-02-22T10:59:31.136Z,64
2023-02-22T11:05:08.074Z,64.4
2023-02-22T11:10:46.466Z,64.7
2023-02-22T11:16:09.841Z,65.1
2023-02-22T11:21:48.835Z,65.7
2023-02-22T11:27:34.545Z,65.9
2023-02-22T11:33:14.165Z,66
2023-02-22T11:39:21.365Z,66.6
2023-02-22T11:44:42.987Z,66.6
2023-02-22T11:50:31.096Z,66.8
2023-02-22T11:56:18.719Z,67.2
2023-02-22T12:01:58.644Z,67.3
2023-02-22T12:08:03.299Z,67.2
2023-02-22T12:14:00.435Z,67.4
2023-02-22T12:20:02.968Z,67.4
2023-02-22T12:26:06.176Z,67.3
2023-02-22T12:31:49.725Z,67.3
2023-02-22T12:37:11.638Z,67.1
2023-02-22T12:43:17.345Z,66.9
2023-02-22T12:49:09.703Z,66.8
2023-02-22T12:55:14.301Z,66.5
2023-02-22T13:06:42.929Z,66.1
2023-02-22T13:12:34.880Z,65.7
2023-02-22T13:18:29.497Z,65.3
2023-02-22T13:24:06.171Z,64.9
2023-02-22T13:29:45.047Z,64.6
2023-02-22T13:35:54.858Z,64.1
2023-02-22T13:41:32.794Z,63.6
2023-02-22T13:47:26.180Z,63.1
2023-02-22T13:53:22.185Z,62.6
2023-02-22T13:59:16.335Z,62.1
2023-02-22T14:05:12.399Z,61.5
2023-02-22T14:11:10.458Z,60.8
2023-02-22T14:16:56.010Z,59.9
2023-02-22T14:22:49.090Z,59.1
2023-02-22T14:28:52.261Z,58.4
2023-02-22T14:35:02.649Z,57.5
2023-02-22T14:41:12.205Z,56.5
2023-02-22T14:47:09.324Z,55.6
2023-02-22T14:53:15.953Z,54.7
2023-02-22T14:59:08.609Z,53.7
2023-02-22T15:05:13.155Z,52.9
2023-02-22T15:11:08.600Z,50
2023-02-22T15:17:12.298Z,47.3
2023-02-22T15:23:08.533Z,45.9
2023-02-22T15:28:58.280Z,44.9
2023-02-22T15:35:12.955Z,44.2
2023-02-22T15:41:07.278Z,43.6
2023-02-22T15:47:09.162Z,43.3
2023-02-22T15:53:02.459Z,42.9
2023-02-22T15:58:50.541Z,42.7
2023-02-22T16:04:51.345Z,42.4
2023-02-22T16:10:48.418Z,42.3
2023-02-22T16:16:55.603Z,42.1
2023-02-22T16:23:07.273Z,42
2023-02-22T16:29:13.225Z,41.8
2023-02-22T16:35:05.395Z,41.8
2023-02-22T16:40:43.191Z,41.3
2023-02-22T16:46:21.261Z,40.9
2023-02-22T16:51:59.927Z,40.7
2023-02-22T17:03:30.238Z,40.3
2023-02-22T17:09:23.732Z,40.1
2023-02-22T17:15:17.652Z,39.9
2023-02-22T17:21:09.997Z,39.4
2023-02-22T17:26:33.450Z,39.1
2023-02-22T17:32:10.832Z,39.1
2023-02-22T17:38:05.148Z,39.1
2023-02-22T17:43:58.939Z,38.9
2023-02-22T17:49:51.814Z,38.9
2023-02-22T17:56:24.936Z,38.9
2023-02-22T18:01:47.079Z,38.8
2023-02-22T18:13:02.573Z,38.7
2023-02-22T18:18:40.860Z,38.6
2023-02-22T18:24:19.054Z,38.6
2023-02-22T18:30:24.303Z,38.5
2023-02-22T18:36:18.634Z,38.4
2023-02-22T18:42:12.110Z,38.4
2023-02-22T18:48:06.231Z,38.3
2023-02-22T18:54:03.589Z,38.3
2023-02-22T18:59:57.488Z,38.2
2023-02-22T19:05:52.254Z,38
2023-02-22T19:11:46.403Z,37.8
2023-02-22T19:17:42.425Z,37.8
2023-02-22T19:23:39.787Z,37.7
2023-02-22T19:29:33.205Z,37.6
2023-02-22T19:35:29.000Z,37.6
2023-02-22T19:41:26.434Z,37.6
2023-02-22T19:47:20.775Z,37.5
2023-02-22T19:53:14.508Z,37.4
2023-02-22T19:59:08.241Z,37.3
2023-02-22T20:05:03.236Z,37.2
2023-02-22T20:10:56.385Z,37.1
2023-02-22T20:16:33.239Z,37.1
2023-02-22T20:22:27.703Z,37
2023-02-22T20:28:23.970Z,36.9
2023-02-22T20:34:04.239Z,36.9
2023-02-22T20:39:58.177Z,36.9
2023-02-22T20:45:34.925Z,36.9
2023-02-22T20:51:12.789Z,36.8
2023-02-22T20:57:09.224Z,36.8
2023-02-22T21:03:02.579Z,36.7
2023-02-22T21:08:57.623Z,36.7
2023-02-22T21:14:54.329Z,36.6
2023-02-22T21:20:48.221Z,36.6
2023-02-22T21:26:40.461Z,36.5
2023-02-22T21:32:34.752Z,36.4
2023-02-22T21:38:27.180Z,36.4
2023-02-22T21:44:20.718Z,36.4
2023-02-22T21:50:14.240Z,36.3
2023-02-22T21:56:07.088Z,36.3
2023-02-22T22:02:00.031Z,36.3
2023-02-22T22:07:53.744Z,36.2
2023-02-22T22:13:53.044Z,36.2
2023-02-22T22:19:44.893Z,36.1
2023-02-22T22:25:38.696Z,36.1
2023-02-22T22:31:31.511Z,36
2023-02-22T22:37:08.782Z,36
2023-02-22T22:42:46.536Z,36
2023-02-22T22:48:24.500Z,35.9
2023-02-22T22:54:18.732Z,35.9
2023-02-22T23:00:11.917Z,35.8
2023-02-22T23:06:06.309Z,35.8
2023-02-22T23:11:59.151Z,35.8
2023-02-22T23:17:53.454Z,35.7
2023-02-22T23:23:45.706Z,35.7
2023-02-22T23:29:22.340Z,35.6
2023-02-22T23:35:17.494Z,35.6
2023-02-22T23:41:12.318Z,35.6
2023-02-22T23:46:50.549Z,35.5
2023-02-22T23:52:28.979Z,35.5
2023-02-22T23:58:21.697Z,35.4
